sensor_id;sensor_type;location;lat;lon;timestamp;pressure;altitude;pressure_sealevel;temperature;humidity
42411;BME280;28056;51.112;0.984;2023-06-22T00:04:53;100948.79;;;19.15;56.16
42411;BME280;28056;51.112;0.984;2023-06-22T00:07:20;100949.58;;;19.77;54.41
42411;BME280;28056;51.112;0.984;2023-06-22T00:09:48;100951.90;;;19.66;54.41
42411;BME280;28056;51.112;0.984;2023-06-22T00:12:15;100954.83;;;19.80;53.24
42411;BME280;28056;51.112;0.984;2023-06-22T00:14:43;100957.23;;;19.92;53.49
42411;BME280;28056;51.112;0.984;2023-06-22T00:17:10;100952.28;;;19.69;53.42
42411;BME280;28056;51.112;0.984;2023-06-22T00:19:38;100950.25;;;19.59;53.33
42411;BME280;28056;51.112;0.984;2023-06-22T00:22:06;100949.20;;;19.66;53.01
42411;BME280;28056;51.112;0.984;2023-06-22T00:24:33;100950.85;;;19.43;54.72
42411;BME280;28056;51.112;0.984;2023-06-22T00:27:00;100949.77;;;19.14;56.27
42411;BME280;28056;51.112;0.984;2023-06-22T00:29:28;100946.45;;;18.82;58.26
42411;BME280;28056;51.112;0.984;2023-06-22T00:31:56;100947.32;;;18.88;58.36
42411;BME280;28056;51.112;0.984;2023-06-22T00:34:23;100948.90;;;19.17;56.81
42411;BME280;28056;51.112;0.984;2023-06-22T00:36:50;100950.72;;;19.43;55.22
42411;BME280;28056;51.112;0.984;2023-06-22T00:39:18;100954.97;;;19.57;55.14
42411;BME280;28056;51.112;0.984;2023-06-22T00:41:45;100960.99;;;19.45;54.81
42411;BME280;28056;51.112;0.984;2023-06-22T00:44:12;100965.35;;;19.63;54.86
42411;BME280;28056;51.112;0.984;2023-06-22T00:46:40;100967.65;;;19.60;54.09
42411;BME280;28056;51.112;0.984;2023-06-22T00:49:08;100964.73;;;19.16;55.50
42411;BME280;28056;51.112;0.984;2023-06-22T00:51:37;100961.94;;;19.25;55.88
42411;BME280;28056;51.112;0.984;2023-06-22T00:54:09;100960.68;;;18.99;56.98
42411;BME280;28056;51.112;0.984;2023-06-22T00:56:37;100960.40;;;19.18;55.96
42411;BME280;28056;51.112;0.984;2023-06-22T00:59:05;100959.65;;;19.29;54.98
42411;BME280;28056;51.112;0.984;2023-06-22T01:01:32;100959.32;;;19.38;54.56
42411;BME280;28056;51.112;0.984;2023-06-22T01:04:00;100961.47;;;19.23;54.44
42411;BME280;28056;51.112;0.984;2023-06-22T01:06:32;100965.65;;;19.47;54.77
42411;BME280;28056;51.112;0.984;2023-06-22T01:09:09;100967.45;;;19.28;54.38
42411;BME280;28056;51.112;0.984;2023-06-22T01:11:42;100970.80;;;19.58;54.41
42411;BME280;28056;51.112;0.984;2023-06-22T01:14:15;100969.64;;;19.67;53.72
42411;BME280;28056;51.112;0.984;2023-06-22T01:16:44;100966.19;;;19.45;53.80
42411;BME280;28056;51.112;0.984;2023-06-22T01:19:33;100966.77;;;19.70;53.53
42411;BME280;28056;51.112;0.984;2023-06-22T01:22:03;100968.00;;;19.76;53.49
42411;BME280;28056;51.112;0.984;2023-06-22T01:24:40;100970.20;;;19.34;53.73
42411;BME280;28056;51.112;0.984;2023-06-22T01:27:22;100963.15;;;19.24;55.00
42411;BME280;28056;51.112;0.984;2023-06-22T01:29:55;100960.83;;;19.41;54.01
42411;BME280;28056;51.112;0.984;2023-06-22T01:32:23;100962.99;;;19.41;53.76
42411;BME280;28056;51.112;0.984;2023-06-22T01:34:51;100964.55;;;19.16;53.75
42411;BME280;28056;51.112;0.984;2023-06-22T01:37:19;100966.39;;;19.49;53.03
42411;BME280;28056;51.112;0.984;2023-06-22T01:39:46;100969.76;;;19.28;52.89
42411;BME280;28056;51.112;0.984;2023-06-22T01:42:14;100972.80;;;19.49;52.84
42411;BME280;28056;51.112;0.984;2023-06-22T01:44:41;100974.75;;;19.19;52.70
42411;BME280;28056;51.112;0.984;2023-06-22T01:47:09;100975.24;;;19.15;52.75
42411;BME280;28056;51.112;0.984;2023-06-22T01:49:37;100975.81;;;19.28;52.62
42411;BME280;28056;51.112;0.984;2023-06-22T01:52:05;100974.61;;;19.20;53.01
42411;BME280;28056;51.112;0.984;2023-06-22T01:54:33;100971.99;;;19.36;53.19
42411;BME280;28056;51.112;0.984;2023-06-22T01:57:00;100965.02;;;19.38;53.00
42411;BME280;28056;51.112;0.984;2023-06-22T01:59:36;100961.72;;;19.22;52.85
42411;BME280;28056;51.112;0.984;2023-06-22T02:02:07;100959.11;;;19.03;52.91
42411;BME280;28056;51.112;0.984;2023-06-22T02:04:40;100962.07;;;19.36;52.77
42411;BME280;28056;51.112;0.984;2023-06-22T02:07:13;100965.17;;;19.55;53.10
42411;BME280;28056;51.112;0.984;2023-06-22T02:09:43;100963.54;;;19.37;54.40
42411;BME280;28056;51.112;0.984;2023-06-22T02:12:13;100967.26;;;18.77;54.29
42411;BME280;28056;51.112;0.984;2023-06-22T02:14:45;100967.86;;;18.72;53.92
42411;BME280;28056;51.112;0.984;2023-06-22T02:17:13;100964.48;;;18.69;53.86
42411;BME280;28056;51.112;0.984;2023-06-22T02:19:41;100957.93;;;18.73;53.77
42411;BME280;28056;51.112;0.984;2023-06-22T02:22:08;100958.66;;;18.69;53.86
42411;BME280;28056;51.112;0.984;2023-06-22T02:24:36;100955.32;;;17.82;55.78
42411;BME280;28056;51.112;0.984;2023-06-22T02:27:04;100956.67;;;18.32;54.58
42411;BME280;28056;51.112;0.984;2023-06-22T02:29:32;100956.91;;;18.50;54.31
42411;BME280;28056;51.112;0.984;2023-06-22T02:32:00;100950.43;;;18.42;54.10
42411;BME280;28056;51.112;0.984;2023-06-22T02:34:27;100948.31;;;18.55;54.94
42411;BME280;28056;51.112;0.984;2023-06-22T02:36:55;100943.70;;;18.87;54.25
42411;BME280;28056;51.112;0.984;2023-06-22T02:39:24;100941.92;;;18.97;53.16
42411;BME280;28056;51.112;0.984;2023-06-22T02:41:53;100938.60;;;18.95;52.86
42411;BME280;28056;51.112;0.984;2023-06-22T02:44:21;100931.97;;;18.50;52.63
42411;BME280;28056;51.112;0.984;2023-06-22T02:46:48;100926.46;;;18.42;52.95
42411;BME280;28056;51.112;0.984;2023-06-22T02:49:16;100922.48;;;18.36;53.26
42411;BME280;28056;51.112;0.984;2023-06-22T02:51:45;100921.54;;;18.51;53.66
42411;BME280;28056;51.112;0.984;2023-06-22T02:54:13;100917.53;;;18.71;53.93
42411;BME280;28056;51.112;0.984;2023-06-22T02:56:41;100915.19;;;18.68;54.36
42411;BME280;28056;51.112;0.984;2023-06-22T02:59:09;100917.91;;;18.64;55.16
42411;BME280;28056;51.112;0.984;2023-06-22T03:01:37;100917.31;;;18.55;54.67
42411;BME280;28056;51.112;0.984;2023-06-22T03:04:13;100913.08;;;18.77;54.58
42411;BME280;28056;51.112;0.984;2023-06-22T03:06:41;100908.59;;;18.55;54.51
42411;BME280;28056;51.112;0.984;2023-06-22T03:09:09;100906.11;;;18.35;55.33
42411;BME280;28056;51.112;0.984;2023-06-22T03:11:36;100908.20;;;18.65;53.97
42411;BME280;28056;51.112;0.984;2023-06-22T03:14:03;100904.02;;;18.50;53.20
42411;BME280;28056;51.112;0.984;2023-06-22T03:16:31;100894.06;;;18.73;53.33
42411;BME280;28056;51.112;0.984;2023-06-22T03:18:59;100890.74;;;18.79;54.08
42411;BME280;28056;51.112;0.984;2023-06-22T03:21:28;100889.22;;;18.44;55.18
42411;BME280;28056;51.112;0.984;2023-06-22T03:23:56;100886.08;;;18.55;54.50
42411;BME280;28056;51.112;0.984;2023-06-22T03:26:28;100880.49;;;18.81;54.17
42411;BME280;28056;51.112;0.984;2023-06-22T03:28:56;100880.15;;;18.39;54.23
42411;BME280;28056;51.112;0.984;2023-06-22T03:31:23;100883.67;;;18.55;55.32
42411;BME280;28056;51.112;0.984;2023-06-22T03:33:51;100887.41;;;18.30;55.01
42411;BME280;28056;51.112;0.984;2023-06-22T03:36:18;100888.76;;;18.81;54.47
42411;BME280;28056;51.112;0.984;2023-06-22T03:38:46;100890.81;;;18.64;54.45
42411;BME280;28056;51.112;0.984;2023-06-22T03:41:14;100892.26;;;18.11;54.99
42411;BME280;28056;51.112;0.984;2023-06-22T03:43:42;100895.12;;;18.57;54.66
42411;BME280;28056;51.112;0.984;2023-06-22T03:46:09;100899.20;;;18.40;54.08
42411;BME280;28056;51.112;0.984;2023-06-22T03:48:37;100898.30;;;18.57;54.52
42411;BME280;28056;51.112;0.984;2023-06-22T03:51:04;100903.73;;;18.33;54.32
42411;BME280;28056;51.112;0.984;2023-06-22T03:53:32;100906.04;;;18.17;53.97
42411;BME280;28056;51.112;0.984;2023-06-22T03:55:59;100910.58;;;18.41;53.43
42411;BME280;28056;51.112;0.984;2023-06-22T03:58:27;100913.38;;;18.44;53.28
42411;BME280;28056;51.112;0.984;2023-06-22T04:00:55;100914.24;;;18.22;54.09
42411;BME280;28056;51.112;0.984;2023-06-22T04:03:22;100912.17;;;18.27;53.49
42411;BME280;28056;51.112;0.984;2023-06-22T04:05:49;100912.15;;;18.42;53.72
42411;BME280;28056;51.112;0.984;2023-06-22T04:08:16;100914.20;;;18.15;54.73
42411;BME280;28056;51.112;0.984;2023-06-22T04:10:44;100915.88;;;18.09;54.42
42411;BME280;28056;51.112;0.984;2023-06-22T04:13:12;100919.77;;;18.09;54.16
42411;BME280;28056;51.112;0.984;2023-06-22T04:15:39;100920.37;;;18.10;53.71
42411;BME280;28056;51.112;0.984;2023-06-22T04:18:06;100921.65;;;17.89;55.01
42411;BME280;28056;51.112;0.984;2023-06-22T04:20:34;100923.99;;;17.68;55.33
42411;BME280;28056;51.112;0.984;2023-06-22T04:23:01;100924.41;;;17.59;56.17
42411;BME280;28056;51.112;0.984;2023-06-22T04:25:29;100921.36;;;17.77;56.88
42411;BME280;28056;51.112;0.984;2023-06-22T04:27:56;100920.97;;;17.51;57.28
42411;BME280;28056;51.112;0.984;2023-06-22T04:30:24;100925.59;;;17.74;55.86
42411;BME280;28056;51.112;0.984;2023-06-22T04:32:51;100927.61;;;17.73;55.53
42411;BME280;28056;51.112;0.984;2023-06-22T04:35:19;100931.80;;;17.97;55.33
42411;BME280;28056;51.112;0.984;2023-06-22T04:37:47;100933.12;;;18.17;55.65
42411;BME280;28056;51.112;0.984;2023-06-22T04:40:14;100939.03;;;18.02;55.98
42411;BME280;28056;51.112;0.984;2023-06-22T04:42:42;100944.67;;;17.78;56.74
42411;BME280;28056;51.112;0.984;2023-06-22T04:45:10;100938.38;;;18.00;57.46
42411;BME280;28056;51.112;0.984;2023-06-22T04:47:37;100929.78;;;18.05;57.02
42411;BME280;28056;51.112;0.984;2023-06-22T04:50:05;100929.20;;;17.55;57.95
42411;BME280;28056;51.112;0.984;2023-06-22T04:52:32;100936.11;;;17.43;57.58
42411;BME280;28056;51.112;0.984;2023-06-22T04:55:00;100936.06;;;17.38;58.34
42411;BME280;28056;51.112;0.984;2023-06-22T04:57:27;100926.50;;;17.25;58.40
42411;BME280;28056;51.112;0.984;2023-06-22T04:59:55;100931.09;;;16.79;59.53
42411;BME280;28056;51.112;0.984;2023-06-22T05:02:22;100927.03;;;16.90;59.99
42411;BME280;28056;51.112;0.984;2023-06-22T05:04:50;100927.20;;;17.28;59.61
42411;BME280;28056;51.112;0.984;2023-06-22T05:07:17;100925.80;;;17.33;60.02
42411;BME280;28056;51.112;0.984;2023-06-22T05:09:45;100920.13;;;17.47;58.16
42411;BME280;28056;51.112;0.984;2023-06-22T05:12:12;100916.79;;;17.65;57.99
42411;BME280;28056;51.112;0.984;2023-06-22T05:14:39;100919.33;;;18.04;57.73
42411;BME280;28056;51.112;0.984;2023-06-22T05:17:07;100917.89;;;17.97;57.60
42411;BME280;28056;51.112;0.984;2023-06-22T05:19:34;100916.36;;;17.86;58.40
42411;BME280;28056;51.112;0.984;2023-06-22T05:22:01;100915.39;;;18.26;58.00
42411;BME280;28056;51.112;0.984;2023-06-22T05:24:29;100917.74;;;18.17;57.70
42411;BME280;28056;51.112;0.984;2023-06-22T05:26:56;100918.17;;;18.35;57.35
42411;BME280;28056;51.112;0.984;2023-06-22T05:29:24;100919.77;;;18.88;57.69
42411;BME280;28056;51.112;0.984;2023-06-22T05:31:51;100923.63;;;18.68;57.47
42411;BME280;28056;51.112;0.984;2023-06-22T05:34:19;100930.26;;;18.81;58.12
42411;BME280;28056;51.112;0.984;2023-06-22T05:36:46;100932.55;;;18.63;58.00
42411;BME280;28056;51.112;0.984;2023-06-22T05:39:14;100927.08;;;18.48;58.18
42411;BME280;28056;51.112;0.984;2023-06-22T05:41:42;100920.38;;;19.04;57.55
42411;BME280;28056;51.112;0.984;2023-06-22T05:44:10;100918.56;;;19.02;57.22
42411;BME280;28056;51.112;0.984;2023-06-22T05:46:40;100919.25;;;19.07;57.53
42411;BME280;28056;51.112;0.984;2023-06-22T05:49:07;100919.24;;;18.71;58.71
42411;BME280;28056;51.112;0.984;2023-06-22T05:51:34;100920.42;;;18.53;60.76
42411;BME280;28056;51.112;0.984;2023-06-22T05:54:02;100919.61;;;18.18;62.33
42411;BME280;28056;51.112;0.984;2023-06-22T05:56:29;100926.37;;;18.11;64.10
42411;BME280;28056;51.112;0.984;2023-06-22T05:58:57;100929.07;;;18.54;62.57
42411;BME280;28056;51.112;0.984;2023-06-22T06:01:24;100930.99;;;18.61;62.35
42411;BME280;28056;51.112;0.984;2023-06-22T06:03:52;100934.43;;;18.35;62.59
42411;BME280;28056;51.112;0.984;2023-06-22T06:06:19;100932.10;;;18.84;62.59
42411;BME280;28056;51.112;0.984;2023-06-22T06:08:47;100924.92;;;19.46;60.77
42411;BME280;28056;51.112;0.984;2023-06-22T06:11:14;100925.32;;;19.39;59.85
42411;BME280;28056;51.112;0.984;2023-06-22T06:13:42;100923.71;;;19.55;59.86
42411;BME280;28056;51.112;0.984;2023-06-22T06:16:10;100926.20;;;19.55;59.50
42411;BME280;28056;51.112;0.984;2023-06-22T06:18:37;100928.62;;;19.77;59.25
42411;BME280;28056;51.112;0.984;2023-06-22T06:21:04;100928.47;;;19.64;60.39
42411;BME280;28056;51.112;0.984;2023-06-22T06:23:31;100924.59;;;19.96;59.50
42411;BME280;28056;51.112;0.984;2023-06-22T06:25:59;100923.17;;;20.10;59.67
42411;BME280;28056;51.112;0.984;2023-06-22T06:28:27;100919.94;;;19.41;60.90
42411;BME280;28056;51.112;0.984;2023-06-22T06:30:54;100917.79;;;19.43;61.53
42411;BME280;28056;51.112;0.984;2023-06-22T06:33:21;100912.66;;;19.51;62.09
42411;BME280;28056;51.112;0.984;2023-06-22T06:35:48;100908.49;;;19.71;61.74
42411;BME280;28056;51.112;0.984;2023-06-22T06:38:16;100903.76;;;20.27;61.21
42411;BME280;28056;51.112;0.984;2023-06-22T06:40:43;100900.12;;;20.53;61.04
42411;BME280;28056;51.112;0.984;2023-06-22T06:43:11;100900.88;;;20.22;61.32
42411;BME280;28056;51.112;0.984;2023-06-22T06:45:38;100901.68;;;20.51;61.49
42411;BME280;28056;51.112;0.984;2023-06-22T06:48:06;100903.29;;;20.81;60.72
42411;BME280;28056;51.112;0.984;2023-06-22T06:50:34;100901.48;;;21.11;60.97
42411;BME280;28056;51.112;0.984;2023-06-22T06:53:01;100901.32;;;21.19;60.70
42411;BME280;28056;51.112;0.984;2023-06-22T06:55:28;100902.07;;;21.00;60.94
42411;BME280;28056;51.112;0.984;2023-06-22T06:57:56;100903.58;;;21.31;60.86
42411;BME280;28056;51.112;0.984;2023-06-22T07:00:23;100904.42;;;20.42;62.35
42411;BME280;28056;51.112;0.984;2023-06-22T07:02:52;100909.43;;;20.64;63.46
42411;BME280;28056;51.112;0.984;2023-06-22T07:05:19;100908.66;;;21.02;62.57
42411;BME280;28056;51.112;0.984;2023-06-22T07:07:47;100911.25;;;21.16;61.91
42411;BME280;28056;51.112;0.984;2023-06-22T07:10:14;100911.44;;;21.04;62.23
42411;BME280;28056;51.112;0.984;2023-06-22T07:12:42;100912.13;;;21.47;61.16
42411;BME280;28056;51.112;0.984;2023-06-22T07:15:10;100909.04;;;21.31;60.66
42411;BME280;28056;51.112;0.984;2023-06-22T07:17:38;100907.60;;;21.14;60.06
42411;BME280;28056;51.112;0.984;2023-06-22T07:20:07;100908.66;;;21.58;59.61
42411;BME280;28056;51.112;0.984;2023-06-22T07:22:34;100907.91;;;21.52;59.07
42411;BME280;28056;51.112;0.984;2023-06-22T07:25:01;100902.53;;;21.90;59.05
42411;BME280;28056;51.112;0.984;2023-06-22T07:27:28;100901.52;;;21.96;58.69
42411;BME280;28056;51.112;0.984;2023-06-22T07:29:55;100899.15;;;21.97;58.69
42411;BME280;28056;51.112;0.984;2023-06-22T07:32:23;100894.32;;;22.04;58.43
42411;BME280;28056;51.112;0.984;2023-06-22T07:34:50;100890.19;;;22.62;58.45
42411;BME280;28056;51.112;0.984;2023-06-22T07:37:18;100888.34;;;22.07;58.57
42411;BME280;28056;51.112;0.984;2023-06-22T07:39:45;100889.30;;;22.46;57.47
42411;BME280;28056;51.112;0.984;2023-06-22T07:42:12;100893.44;;;22.30;58.30
42411;BME280;28056;51.112;0.984;2023-06-22T07:44:40;100895.79;;;22.27;58.13
42411;BME280;28056;51.112;0.984;2023-06-22T07:47:07;100893.34;;;22.09;58.50
42411;BME280;28056;51.112;0.984;2023-06-22T07:49:34;100892.92;;;22.14;57.38
42411;BME280;28056;51.112;0.984;2023-06-22T07:52:02;100894.08;;;22.17;58.84
42411;BME280;28056;51.112;0.984;2023-06-22T07:54:29;100892.24;;;22.32;58.65
42411;BME280;28056;51.112;0.984;2023-06-22T07:56:57;100890.07;;;22.30;60.06
42411;BME280;28056;51.112;0.984;2023-06-22T07:59:24;100893.32;;;22.51;60.20
42411;BME280;28056;51.112;0.984;2023-06-22T08:01:52;100893.59;;;23.05;58.13
42411;BME280;28056;51.112;0.984;2023-06-22T08:04:19;100895.47;;;22.89;55.91
42411;BME280;28056;51.112;0.984;2023-06-22T08:06:47;100893.42;;;22.76;56.17
42411;BME280;28056;51.112;0.984;2023-06-22T08:09:15;100896.41;;;23.41;57.25
42411;BME280;28056;51.112;0.984;2023-06-22T08:11:42;100892.90;;;23.70;57.74
42411;BME280;28056;51.112;0.984;2023-06-22T08:14:09;100889.21;;;23.49;57.41
42411;BME280;28056;51.112;0.984;2023-06-22T08:16:37;100889.77;;;23.80;55.59
42411;BME280;28056;51.112;0.984;2023-06-22T08:19:04;100890.47;;;23.87;54.72
42411;BME280;28056;51.112;0.984;2023-06-22T08:21:31;100889.34;;;24.16;56.16
42411;BME280;28056;51.112;0.984;2023-06-22T08:23:59;100886.13;;;24.04;53.94
42411;BME280;28056;51.112;0.984;2023-06-22T08:26:27;100882.56;;;24.50;56.03
42411;BME280;28056;51.112;0.984;2023-06-22T08:28:54;100886.83;;;24.48;57.13
42411;BME280;28056;51.112;0.984;2023-06-22T08:31:21;100885.23;;;24.56;55.58
42411;BME280;28056;51.112;0.984;2023-06-22T08:33:49;100883.40;;;24.85;54.36
42411;BME280;28056;51.112;0.984;2023-06-22T08:36:16;100881.12;;;24.63;52.31
42411;BME280;28056;51.112;0.984;2023-06-22T08:38:43;100886.33;;;25.05;51.66
42411;BME280;28056;51.112;0.984;2023-06-22T08:41:11;100887.22;;;24.56;51.16
42411;BME280;28056;51.112;0.984;2023-06-22T08:43:38;100889.87;;;24.97;51.08
42411;BME280;28056;51.112;0.984;2023-06-22T08:46:06;100889.14;;;24.98;50.06
42411;BME280;28056;51.112;0.984;2023-06-22T08:48:33;100893.80;;;25.10;51.07
42411;BME280;28056;51.112;0.984;2023-06-22T08:51:00;100897.64;;;25.24;53.22
42411;BME280;28056;51.112;0.984;2023-06-22T08:53:28;100897.40;;;25.37;50.86
42411;BME280;28056;51.112;0.984;2023-06-22T08:55:55;100893.35;;;25.46;49.51
42411;BME280;28056;51.112;0.984;2023-06-22T08:58:23;100892.34;;;25.87;46.70
42411;BME280;28056;51.112;0.984;2023-06-22T09:00:50;100890.26;;;25.71;49.26
42411;BME280;28056;51.112;0.984;2023-06-22T09:03:17;100894.88;;;25.95;47.16
42411;BME280;28056;51.112;0.984;2023-06-22T09:05:45;100895.89;;;25.53;48.96
42411;BME280;28056;51.112;0.984;2023-06-22T09:08:13;100891.60;;;25.34;48.51
42411;BME280;28056;51.112;0.984;2023-06-22T09:10:40;100889.54;;;25.26;50.04
42411;BME280;28056;51.112;0.984;2023-06-22T09:13:07;100889.81;;;25.70;47.32
42411;BME280;28056;51.112;0.984;2023-06-22T09:15:35;100890.64;;;25.49;46.66
42411;BME280;28056;51.112;0.984;2023-06-22T09:18:02;100889.32;;;24.77;47.34
42411;BME280;28056;51.112;0.984;2023-06-22T09:20:30;100892.87;;;25.31;48.07
42411;BME280;28056;51.112;0.984;2023-06-22T09:22:57;100894.11;;;25.39;48.83
42411;BME280;28056;51.112;0.984;2023-06-22T09:25:24;100895.22;;;24.74;46.36
42411;BME280;28056;51.112;0.984;2023-06-22T09:27:51;100894.03;;;24.13;46.99
42411;BME280;28056;51.112;0.984;2023-06-22T09:30:19;100896.42;;;23.87;45.86
42411;BME280;28056;51.112;0.984;2023-06-22T09:32:46;100898.07;;;23.64;46.42
42411;BME280;28056;51.112;0.984;2023-06-22T09:35:14;100903.91;;;24.88;50.39
42411;BME280;28056;51.112;0.984;2023-06-22T09:37:41;100903.53;;;24.60;49.79
42411;BME280;28056;51.112;0.984;2023-06-22T09:40:09;100903.45;;;25.46;48.04
42411;BME280;28056;51.112;0.984;2023-06-22T09:42:36;100898.97;;;25.38;43.61
42411;BME280;28056;51.112;0.984;2023-06-22T09:45:04;100902.22;;;25.17;47.66
42411;BME280;28056;51.112;0.984;2023-06-22T09:47:32;100903.04;;;25.20;46.48
42411;BME280;28056;51.112;0.984;2023-06-22T09:49:59;100901.00;;;24.35;47.46
42411;BME280;28056;51.112;0.984;2023-06-22T09:52:28;100902.08;;;24.00;49.04
42411;BME280;28056;51.112;0.984;2023-06-22T09:54:55;100902.94;;;24.55;48.21
42411;BME280;28056;51.112;0.984;2023-06-22T09:57:23;100906.64;;;24.72;49.49
42411;BME280;28056;51.112;0.984;2023-06-22T09:59:50;100911.19;;;25.22;48.05
42411;BME280;28056;51.112;0.984;2023-06-22T10:02:17;100910.62;;;25.83;48.37
42411;BME280;28056;51.112;0.984;2023-06-22T10:04:45;100910.63;;;25.92;47.72
42411;BME280;28056;51.112;0.984;2023-06-22T10:07:12;100910.91;;;25.99;45.59
42411;BME280;28056;51.112;0.984;2023-06-22T10:09:40;100906.30;;;26.89;47.27
42411;BME280;28056;51.112;0.984;2023-06-22T10:12:08;100907.76;;;27.04;42.41
42411;BME280;28056;51.112;0.984;2023-06-22T10:14:35;100906.22;;;26.45;42.90
42411;BME280;28056;51.112;0.984;2023-06-22T10:17:03;100900.87;;;26.99;42.38
42411;BME280;28056;51.112;0.984;2023-06-22T10:19:30;100902.44;;;26.33;42.38
42411;BME280;28056;51.112;0.984;2023-06-22T10:21:57;100898.81;;;26.42;41.46
42411;BME280;28056;51.112;0.984;2023-06-22T10:24:25;100896.32;;;26.25;42.73
42411;BME280;28056;51.112;0.984;2023-06-22T10:26:52;100891.96;;;27.01;44.41
42411;BME280;28056;51.112;0.984;2023-06-22T10:29:20;100892.18;;;26.50;42.18
42411;BME280;28056;51.112;0.984;2023-06-22T10:31:48;100889.78;;;27.30;45.58
42411;BME280;28056;51.112;0.984;2023-06-22T10:34:15;100883.52;;;27.55;44.42
42411;BME280;28056;51.112;0.984;2023-06-22T10:36:42;100888.73;;;25.98;38.75
42411;BME280;28056;51.112;0.984;2023-06-22T10:39:10;100889.17;;;25.84;41.41
42411;BME280;28056;51.112;0.984;2023-06-22T10:41:37;100887.43;;;27.09;41.39
42411;BME280;28056;51.112;0.984;2023-06-22T10:44:05;100885.13;;;27.29;42.54
42411;BME280;28056;51.112;0.984;2023-06-22T10:46:32;100886.73;;;28.15;43.98
42411;BME280;28056;51.112;0.984;2023-06-22T10:48:59;100880.81;;;27.64;40.97
42411;BME280;28056;51.112;0.984;2023-06-22T10:51:26;100884.48;;;27.84;42.15
42411;BME280;28056;51.112;0.984;2023-06-22T10:53:54;100883.04;;;26.94;38.52
42411;BME280;28056;51.112;0.984;2023-06-22T10:56:21;100886.81;;;27.64;39.60
42411;BME280;28056;51.112;0.984;2023-06-22T10:58:49;100890.08;;;26.11;38.45
42411;BME280;28056;51.112;0.984;2023-06-22T11:01:17;100887.80;;;27.20;39.16
42411;BME280;28056;51.112;0.984;2023-06-22T11:03:44;100880.23;;;27.82;41.83
42411;BME280;28056;51.112;0.984;2023-06-22T11:06:11;100883.73;;;28.42;42.56
42411;BME280;28056;51.112;0.984;2023-06-22T11:08:39;100885.02;;;28.35;38.33
42411;BME280;28056;51.112;0.984;2023-06-22T11:11:06;100889.14;;;28.51;37.61
42411;BME280;28056;51.112;0.984;2023-06-22T11:13:34;100884.90;;;28.34;32.37
42411;BME280;28056;51.112;0.984;2023-06-22T11:16:01;100883.94;;;27.84;35.37
42411;BME280;28056;51.112;0.984;2023-06-22T11:18:28;100880.01;;;28.02;38.00
42411;BME280;28056;51.112;0.984;2023-06-22T11:20:55;100876.97;;;27.78;38.19
42411;BME280;28056;51.112;0.984;2023-06-22T11:23:22;100877.05;;;27.03;36.62
42411;BME280;28056;51.112;0.984;2023-06-22T11:25:50;100882.44;;;26.18;34.61
42411;BME280;28056;51.112;0.984;2023-06-22T11:28:17;100879.20;;;26.45;39.22
42411;BME280;28056;51.112;0.984;2023-06-22T11:30:45;100880.50;;;27.32;41.27
42411;BME280;28056;51.112;0.984;2023-06-22T11:33:12;100880.48;;;27.27;35.16
42411;BME280;28056;51.112;0.984;2023-06-22T11:35:40;100878.37;;;27.71;34.66
42411;BME280;28056;51.112;0.984;2023-06-22T11:38:07;100876.20;;;28.27;34.89
42411;BME280;28056;51.112;0.984;2023-06-22T11:40:34;100874.24;;;28.96;37.48
42411;BME280;28056;51.112;0.984;2023-06-22T11:43:02;100875.62;;;29.35;37.28
42411;BME280;28056;51.112;0.984;2023-06-22T11:45:29;100877.73;;;29.58;36.50
42411;BME280;28056;51.112;0.984;2023-06-22T11:47:56;100868.74;;;28.69;36.70
42411;BME280;28056;51.112;0.984;2023-06-22T11:50:23;100864.00;;;29.30;35.34
42411;BME280;28056;51.112;0.984;2023-06-22T11:52:51;100864.12;;;30.54;36.16
42411;BME280;28056;51.112;0.984;2023-06-22T11:55:18;100859.78;;;29.66;35.97
42411;BME280;28056;51.112;0.984;2023-06-22T11:57:55;100862.21;;;29.77;36.10
42411;BME280;28056;51.112;0.984;2023-06-22T12:00:23;100858.04;;;29.63;35.22
42411;BME280;28056;51.112;0.984;2023-06-22T12:02:50;100858.47;;;30.12;39.54
42411;BME280;28056;51.112;0.984;2023-06-22T12:05:19;100855.38;;;31.10;39.98
42411;BME280;28056;51.112;0.984;2023-06-22T12:07:46;100851.89;;;29.25;33.16
42411;BME280;28056;51.112;0.984;2023-06-22T12:10:14;100855.47;;;31.04;36.45
42411;BME280;28056;51.112;0.984;2023-06-22T12:12:41;100855.36;;;31.40;35.02
42411;BME280;28056;51.112;0.984;2023-06-22T12:15:09;100858.93;;;30.30;31.02
42411;BME280;28056;51.112;0.984;2023-06-22T12:17:37;100857.78;;;30.46;31.53
42411;BME280;28056;51.112;0.984;2023-06-22T12:20:06;100862.06;;;30.75;35.70
42411;BME280;28056;51.112;0.984;2023-06-22T12:22:34;100857.17;;;30.14;33.71
42411;BME280;28056;51.112;0.984;2023-06-22T12:25:02;100857.55;;;31.40;34.18
42411;BME280;28056;51.112;0.984;2023-06-22T12:27:30;100866.36;;;31.07;34.68
42411;BME280;28056;51.112;0.984;2023-06-22T12:29:57;100862.92;;;31.79;28.88
42411;BME280;28056;51.112;0.984;2023-06-22T12:32:24;100872.39;;;30.87;35.17
42411;BME280;28056;51.112;0.984;2023-06-22T12:34:51;100872.28;;;31.46;32.89
42411;BME280;28056;51.112;0.984;2023-06-22T12:37:19;100871.27;;;31.05;33.02
42411;BME280;28056;51.112;0.984;2023-06-22T12:39:46;100864.59;;;31.63;36.78
42411;BME280;28056;51.112;0.984;2023-06-22T12:42:14;100871.72;;;31.25;34.41
42411;BME280;28056;51.112;0.984;2023-06-22T12:44:42;100878.60;;;29.61;37.56
42411;BME280;28056;51.112;0.984;2023-06-22T12:47:10;100875.41;;;28.84;37.35
42411;BME280;28056;51.112;0.984;2023-06-22T12:49:37;100874.56;;;28.59;40.17
42411;BME280;28056;51.112;0.984;2023-06-22T12:52:09;100872.65;;;27.20;40.70
42411;BME280;28056;51.112;0.984;2023-06-22T12:54:37;100869.58;;;27.71;40.71
42411;BME280;28056;51.112;0.984;2023-06-22T12:57:04;100867.50;;;26.83;42.72